Terminal Aerodrome Forecast
Issued by NWS Jackson, KY

Home | Current Version | Previous Version | Text Only | Print | Product List | Glossary On
Versions: 1 2 3 4 5 6 7 8 9 10 11 12 13 14 15 16 17 18 19 20 21 22 23 24 25
266
FTUS43 KJKL 121739
TAFJKL
TAF
KJKL 121739Z 1218/1318 28007KT 1SM -SHSN BR BKN020 OVC040
      TEMPO 1218/1219 4SM -SHSN SCT025 BKN040
     FM121900 29008KT P6SM VCSH SCT010 OVC020
     FM130700 32006KT P6SM BKN030=

USA.gov is the U.S. government's official web portal to all federal, state and local government web resources and services.